Terminal Aerodrome Forecast
Issued by NWS Tulsa, OK

Home | Current Version | Previous Version | Text Only | Print | Product List | Glossary On
Versions: 1 2 3 4 5 6 7 8 9 10 11 12 13 14 15 16 17 18
000
FTUS44 KTSA 280520
TAFTUL
TAF
KTUL 280520Z 2806/2906 01005KT P6SM VCTS BKN070CB OVC250
      TEMPO 2806/2808 4SM -TSRA BKN040CB
     FM280800 02005KT P6SM BKN040
     FM281200 36007KT P6SM BKN025
     FM281800 01009KT P6SM SCT025 BKN050
     FM290000 03006KT P6SM SCT250=

USA.gov is the U.S. government's official web portal to all federal, state and local government web resources and services.